createdAt,value
2018-09-23T00:01:39.864Z,100921.00
2018-09-23T00:04:09.888Z,100908.00
2018-09-23T00:06:39.770Z,100905.00
2018-09-23T00:09:09.783Z,100903.00
2018-09-23T00:11:39.797Z,100911.00
2018-09-23T00:14:09.289Z,100898.00
2018-09-23T00:16:39.145Z,100909.00
2018-09-23T00:19:08.925Z,100900.00
2018-09-23T00:21:38.948Z,100899.00
2018-09-23T00:24:08.721Z,100898.00
2018-09-23T00:26:38.839Z,100897.00
2018-09-23T00:29:08.787Z,100885.00
2018-09-23T00:31:54.653Z,100902.00
2018-09-23T00:34:25.347Z,100872.00
2018-09-23T00:36:55.659Z,100879.00
2018-09-23T00:39:25.747Z,100875.00
2018-09-23T00:41:55.748Z,100872.00
2018-09-23T00:44:25.453Z,100858.00
2018-09-23T00:46:55.111Z,100863.00
2018-09-23T00:49:25.165Z,100856.00
2018-09-23T00:51:54.907Z,100854.00
2018-09-23T00:54:24.716Z,100866.00
2018-09-23T00:56:54.591Z,100868.00
2018-09-23T00:59:24.465Z,100870.00
2018-09-23T01:01:54.355Z,100869.00
2018-09-23T01:04:24.047Z,100865.00
2018-09-23T01:06:53.605Z,100873.00
2018-09-23T01:09:24.515Z,100858.00
2018-09-23T01:11:54.245Z,100870.00
2018-09-23T01:14:23.970Z,100864.00
2018-09-23T01:16:53.965Z,100864.00
2018-09-23T01:19:23.823Z,100856.00
2018-09-23T01:21:53.321Z,100846.00
2018-09-23T01:24:23.463Z,100843.00
2018-09-23T01:26:52.947Z,100838.00
2018-09-23T01:29:22.758Z,100832.00
2018-09-23T01:31:52.759Z,100824.00
2018-09-23T01:34:22.415Z,100828.00
2018-09-23T01:36:51.824Z,100817.00
2018-09-23T01:39:21.452Z,100826.00
2018-09-23T01:41:51.219Z,100834.00
2018-09-23T01:44:21.260Z,100835.00
2018-09-23T01:46:51.199Z,100843.00
2018-09-23T01:49:21.049Z,100832.00
2018-09-23T01:51:50.858Z,100834.00
2018-09-23T01:54:20.770Z,100826.00
2018-09-23T01:56:50.465Z,100817.00
2018-09-23T01:59:20.450Z,100819.00
2018-09-23T02:01:50.395Z,100818.00
2018-09-23T02:04:20.151Z,100807.00
2018-09-23T02:06:50.361Z,100817.00
2018-09-23T02:09:20.099Z,100808.00
2018-09-23T02:11:49.967Z,100801.00
2018-09-23T02:14:19.771Z,100795.00
2018-09-23T02:16:49.198Z,100794.00
2018-09-23T02:19:18.827Z,100791.00
2018-09-23T02:21:48.679Z,100796.00
2018-09-23T02:24:18.927Z,100787.00
2018-09-23T02:26:48.804Z,100794.00
2018-09-23T02:29:18.716Z,100791.00
2018-09-23T02:31:47.963Z,100790.00
2018-09-23T02:34:17.779Z,100783.00
2018-09-23T02:36:47.871Z,100783.00
2018-09-23T02:39:17.384Z,100771.00
2018-09-23T02:41:47.126Z,100762.00
2018-09-23T02:44:17.167Z,100763.00
2018-09-23T02:46:47.047Z,100768.00
2018-09-23T02:49:16.868Z,100767.00
2018-09-23T02:51:46.821Z,100759.00
2018-09-23T02:54:16.989Z,100772.00
2018-09-23T02:56:46.379Z,100776.00
2018-09-23T02:59:15.755Z,100762.00
2018-09-23T03:01:45.270Z,100756.00
2018-09-23T03:04:15.465Z,100761.00
2018-09-23T03:06:45.039Z,100750.00
2018-09-23T03:09:14.701Z,100751.00
2018-09-23T03:11:44.411Z,100758.00
2018-09-23T03:14:14.353Z,100752.00
2018-09-23T03:16:43.737Z,100749.00
2018-09-23T03:19:13.622Z,100738.00
2018-09-23T03:21:43.558Z,100734.00
2018-09-23T03:24:13.435Z,100735.00
2018-09-23T03:26:43.740Z,100726.00
2018-09-23T03:29:13.625Z,100726.00
2018-09-23T03:31:43.497Z,100733.00
2018-09-23T03:34:13.305Z,100732.00
2018-09-23T03:36:42.468Z,100728.00
2018-09-23T03:39:11.833Z,100718.00
2018-09-23T03:41:41.345Z,100704.00
2018-09-23T03:44:11.258Z,100716.00
2018-09-23T03:46:40.747Z,100714.00
2018-09-23T03:49:10.340Z,100712.00
2018-09-23T03:51:39.972Z,100711.00
2018-09-23T03:54:11.459Z,100709.00
2018-09-23T03:56:41.830Z,100722.00
2018-09-23T03:59:11.870Z,100714.00
2018-09-23T04:01:41.352Z,100711.00
2018-09-23T04:04:11.116Z,100701.00
2018-09-23T04:06:41.286Z,100690.00
2018-09-23T04:09:11.328Z,100690.00
2018-09-23T04:11:41.261Z,100688.00
2018-09-23T04:14:10.916Z,100693.00
2018-09-23T04:16:40.416Z,100685.00
2018-09-23T04:19:09.778Z,100690.00
2018-09-23T04:21:39.371Z,100680.00
2018-09-23T04:24:09.482Z,100693.00
2018-09-23T04:26:39.868Z,100679.00
2018-09-23T04:29:09.496Z,100666.00
2018-09-23T04:31:39.673Z,100676.00
2018-09-23T04:34:09.463Z,100668.00
2018-09-23T04:36:38.930Z,100660.00
2018-09-23T04:39:10.045Z,100664.00
2018-09-23T04:41:39.456Z,100654.00
2018-09-23T04:44:08.790Z,100639.00
2018-09-23T04:46:38.317Z,100631.00
2018-09-23T04:49:07.581Z,100618.00
2018-09-23T04:51:36.691Z,100606.00
2018-09-23T04:54:06.107Z,100619.00
2018-09-23T04:56:36.328Z,100632.00
2018-09-23T04:59:05.760Z,100628.00
2018-09-23T05:01:34.946Z,100616.00
2018-09-23T05:04:04.448Z,100609.00
2018-09-23T05:06:33.807Z,100623.00
2018-09-23T05:09:03.965Z,100615.00
2018-09-23T05:11:33.578Z,100651.00
2018-09-23T05:14:03.350Z,100669.00
2018-09-23T05:16:32.945Z,100665.00
2018-09-23T05:19:03.042Z,100647.00
2018-09-23T05:21:32.716Z,100641.00
2018-09-23T05:24:02.074Z,100632.00
2018-09-23T05:26:31.595Z,100632.00
2018-09-23T05:29:01.526Z,100629.00
2018-09-23T05:31:31.036Z,100632.00
2018-09-23T05:34:01.172Z,100619.00
2018-09-23T05:36:31.292Z,100613.00
2018-09-23T05:39:01.706Z,100611.00
2018-09-23T05:41:31.712Z,100623.00
2018-09-23T05:44:02.288Z,100614.00
2018-09-23T05:46:32.196Z,100615.00
2018-09-23T05:49:02.368Z,100619.00
2018-09-23T05:51:32.168Z,100612.00
2018-09-23T05:54:02.203Z,100614.00
2018-09-23T05:56:32.328Z,100617.00
2018-09-23T05:59:02.124Z,100602.00
2018-09-23T06:01:32.948Z,100590.00
2018-09-23T06:04:02.586Z,100594.00
2018-09-23T06:06:32.344Z,100595.00
2018-09-23T06:09:03.764Z,100595.00
2018-09-23T06:11:34.482Z,100593.00
2018-09-23T06:14:04.695Z,100601.00
2018-09-23T06:16:35.016Z,100609.00
2018-09-23T06:19:05.241Z,100613.00
2018-09-23T06:21:36.582Z,100620.00
2018-09-23T06:24:06.712Z,100608.00
2018-09-23T06:26:37.094Z,100602.00
2018-09-23T06:29:08.021Z,100602.00
2018-09-23T06:31:38.324Z,100590.00
2018-09-23T06:34:08.960Z,100601.00
2018-09-23T06:36:39.314Z,100595.00
2018-09-23T06:39:11.618Z,100600.00
2018-09-23T06:41:42.218Z,100609.00
2018-09-23T06:44:12.630Z,100606.00
2018-09-23T06:46:43.309Z,100600.00
2018-09-23T06:49:13.752Z,100600.00
2018-09-23T06:51:44.556Z,100598.00
2018-09-23T06:54:15.570Z,100586.00
2018-09-23T06:56:45.780Z,100581.00
2018-09-23T06:59:15.863Z,100586.00
2018-09-23T07:01:46.490Z,100577.00
2018-09-23T07:04:17.077Z,100574.00
2018-09-23T07:06:48.245Z,100567.00
2018-09-23T07:09:18.613Z,100570.00
2018-09-23T07:11:49.470Z,100570.00
2018-09-23T07:14:20.091Z,100576.00
2018-09-23T07:16:50.008Z,100576.00
2018-09-23T07:19:20.739Z,100580.00
2018-09-23T07:21:52.171Z,100593.00
2018-09-23T07:24:22.336Z,100582.00
2018-09-23T07:26:53.022Z,100577.00
2018-09-23T07:29:23.506Z,100582.00
2018-09-23T07:31:54.234Z,100588.00
2018-09-23T07:34:24.680Z,100593.00
2018-09-23T07:36:56.364Z,100601.00
2018-09-23T07:39:27.098Z,100591.00
2018-09-23T07:41:59.136Z,100586.00
2018-09-23T07:44:29.619Z,100583.00
2018-09-23T07:47:01.336Z,100582.00
2018-09-23T07:49:32.826Z,100565.00
2018-09-23T07:52:03.734Z,100546.00
2018-09-23T07:54:34.561Z,100530.00
2018-09-23T07:57:05.467Z,100523.00
2018-09-23T07:59:36.005Z,100523.00
2018-09-23T08:02:06.455Z,100540.00
2018-09-23T08:04:36.943Z,100540.00
2018-09-23T08:07:07.308Z,100529.00
2018-09-23T08:09:37.486Z,100520.00
2018-09-23T08:12:07.236Z,100516.00
2018-09-23T08:14:38.363Z,100529.00
2018-09-23T08:17:08.155Z,100530.00
2018-09-23T08:19:38.584Z,100521.00
2018-09-23T08:22:08.967Z,100511.00
2018-09-23T08:24:39.288Z,100515.00
2018-09-23T08:27:15.340Z,100507.00
2018-09-23T08:29:52.063Z,100501.00
2018-09-23T08:32:28.283Z,100496.00
2018-09-23T08:35:05.637Z,100524.00
2018-09-23T08:37:39.265Z,100512.00
2018-09-23T08:40:13.980Z,100511.00
2018-09-23T08:42:49.529Z,100504.00
2018-09-23T08:45:25.683Z,100499.00
2018-09-23T08:48:01.749Z,100514.00
2018-09-23T08:50:36.341Z,100524.00
2018-09-23T08:53:10.739Z,100520.00
2018-09-23T08:55:45.293Z,100515.00
2018-09-23T08:58:15.159Z,100479.00
2018-09-23T09:00:44.915Z,100474.00
2018-09-23T09:03:14.914Z,100475.00
2018-09-23T09:05:45.425Z,100459.00
2018-09-23T09:08:16.053Z,100448.00
2018-09-23T09:10:46.253Z,100443.00
2018-09-23T09:13:16.683Z,100441.00
2018-09-23T09:15:47.348Z,100460.00
2018-09-23T09:18:18.171Z,100460.00
2018-09-23T09:20:48.630Z,100453.00
2018-09-23T09:23:19.455Z,100441.00
2018-09-23T09:25:50.035Z,100450.00
2018-09-23T09:28:20.283Z,100430.00
2018-09-23T09:30:50.566Z,100420.00
2018-09-23T09:33:21.083Z,100434.00
2018-09-23T09:35:52.285Z,100417.00
2018-09-23T09:38:22.836Z,100409.00
2018-09-23T09:40:53.140Z,100410.00
2018-09-23T09:43:23.870Z,100417.00
2018-09-23T09:45:54.276Z,100400.00
2018-09-23T09:48:25.526Z,100406.00
2018-09-23T09:50:55.547Z,100400.00
2018-09-23T09:53:25.885Z,100411.00
2018-09-23T09:55:56.306Z,100405.00
2018-09-23T09:58:27.053Z,100385.00
2018-09-23T10:00:57.742Z,100375.00
2018-09-23T10:03:27.614Z,100365.00
2018-09-23T10:05:58.214Z,100366.00
2018-09-23T10:08:28.598Z,100377.00
2018-09-23T10:10:59.317Z,100377.00
2018-09-23T10:13:29.827Z,100374.00
2018-09-23T10:16:00.093Z,100370.00
2018-09-23T10:18:30.584Z,100370.00
2018-09-23T10:21:00.982Z,100367.00
2018-09-23T10:23:31.976Z,100352.00
2018-09-23T10:26:03.128Z,100348.00
2018-09-23T10:28:33.434Z,100339.00
2018-09-23T10:31:04.678Z,100331.00
2018-09-23T10:33:35.765Z,100335.00
2018-09-23T10:36:05.697Z,100338.00
2018-09-23T10:38:35.554Z,100341.00
2018-09-23T10:41:06.646Z,100338.00
2018-09-23T10:43:37.119Z,100347.00
2018-09-23T10:46:08.257Z,100344.00
2018-09-23T10:48:38.317Z,100356.00
2018-09-23T10:51:09.096Z,100332.00
2018-09-23T10:53:39.422Z,100326.00
2018-09-23T10:56:10.012Z,100313.00
2018-09-23T10:58:40.746Z,100315.00
2018-09-23T11:01:11.496Z,100312.00
2018-09-23T11:03:41.860Z,100290.00
2018-09-23T11:06:12.355Z,100292.00
2018-09-23T11:08:42.866Z,100288.00
2018-09-23T11:11:14.365Z,100288.00
2018-09-23T11:13:44.563Z,100288.00
2018-09-23T11:16:15.082Z,100302.00
2018-09-23T11:18:46.060Z,100298.00
2018-09-23T11:21:16.482Z,100302.00
2018-09-23T11:23:47.126Z,100296.00
2018-09-23T11:26:18.116Z,100290.00
2018-09-23T11:28:48.324Z,100288.00
2018-09-23T11:31:18.738Z,100299.00
2018-09-23T11:33:49.094Z,100298.00
2018-09-23T11:36:19.616Z,100290.00
2018-09-23T11:38:49.671Z,100287.00
2018-09-23T11:41:19.883Z,100285.00
2018-09-23T11:43:49.950Z,100286.00
2018-09-23T11:46:20.069Z,100286.00
2018-09-23T11:48:50.057Z,100274.00
2018-09-23T11:51:20.220Z,100278.00
2018-09-23T11:53:50.581Z,100276.00
2018-09-23T11:56:20.898Z,100258.00
2018-09-23T11:58:52.043Z,100262.00
2018-09-23T12:01:22.415Z,100270.00
2018-09-23T12:03:52.798Z,100267.00
2018-09-23T12:06:23.382Z,100257.00
2018-09-23T12:08:54.014Z,100266.00
2018-09-23T12:11:24.694Z,100260.00
2018-09-23T12:13:55.222Z,100248.00
2018-09-23T12:16:25.572Z,100227.00
2018-09-23T12:18:55.824Z,100222.00
2018-09-23T12:21:26.358Z,100222.00
2018-09-23T12:23:56.785Z,100203.00
2018-09-23T12:26:27.244Z,100192.00
2018-09-23T12:28:57.272Z,100191.00
2018-09-23T12:31:27.613Z,100170.00
2018-09-23T12:33:58.318Z,100149.00
2018-09-23T12:36:28.783Z,100150.00
2018-09-23T12:38:59.030Z,100149.00
2018-09-23T12:41:29.590Z,100151.00
2018-09-23T12:43:59.824Z,100146.00
2018-09-23T12:46:30.332Z,100124.00
2018-09-23T12:49:01.736Z,100105.00
2018-09-23T12:51:31.883Z,100103.00
2018-09-23T12:54:02.768Z,100091.00
2018-09-23T12:56:32.632Z,100080.00
2018-09-23T12:59:03.275Z,100073.00
2018-09-23T13:01:34.274Z,100097.00
2018-09-23T13:04:04.458Z,100117.00
2018-09-23T13:06:35.528Z,100132.00
2018-09-23T13:09:06.242Z,100129.00
2018-09-23T13:11:36.925Z,100136.00
2018-09-23T13:14:07.413Z,100126.00
2018-09-23T13:16:37.903Z,100110.00
2018-09-23T13:19:08.141Z,100086.00
2018-09-23T13:21:39.524Z,100060.00
2018-09-23T13:24:09.992Z,100092.00
2018-09-23T13:26:40.414Z,100111.00
2018-09-23T13:29:10.852Z,100082.00
2018-09-23T13:31:41.339Z,100048.00
2018-09-23T13:34:11.819Z,100024.00
2018-09-23T13:36:42.286Z,100028.00
2018-09-23T13:39:12.942Z,100048.00
2018-09-23T13:41:44.152Z,100079.00
2018-09-23T13:44:14.332Z,100116.00
2018-09-23T13:46:44.908Z,100109.00
2018-09-23T13:49:14.902Z,100095.00
2018-09-23T13:51:45.223Z,100108.00
2018-09-23T13:54:15.916Z,100084.00
2018-09-23T13:56:46.887Z,100079.00
2018-09-23T13:59:17.422Z,100084.00
2018-09-23T14:01:48.865Z,100066.00
2018-09-23T14:04:19.146Z,100065.00
2018-09-23T14:06:49.795Z,100051.00
2018-09-23T14:09:20.766Z,100049.00
2018-09-23T14:11:51.804Z,100059.00
2018-09-23T14:14:22.723Z,100053.00
2018-09-23T14:16:53.887Z,100061.00
2018-09-23T14:19:24.391Z,100069.00
2018-09-23T14:21:55.144Z,100073.00
2018-09-23T14:24:25.629Z,100089.00
2018-09-23T14:26:55.576Z,100056.00
2018-09-23T14:29:25.809Z,100058.00
2018-09-23T14:31:56.415Z,100037.00
2018-09-23T14:34:27.057Z,100061.00
2018-09-23T14:36:57.624Z,100087.00
2018-09-23T14:39:28.206Z,100088.00
2018-09-23T14:41:58.677Z,100096.00
2018-09-23T14:44:29.843Z,100096.00
2018-09-23T14:47:00.654Z,100111.00
2018-09-23T14:49:31.180Z,100124.00
2018-09-23T14:52:02.500Z,100140.00
2018-09-23T14:54:33.426Z,100121.00
2018-09-23T14:57:04.200Z,100073.00
2018-09-23T14:59:34.962Z,100110.00
2018-09-23T15:02:05.639Z,100088.00
2018-09-23T15:04:36.088Z,100056.00
2018-09-23T15:07:07.030Z,100046.00
2018-09-23T15:09:37.343Z,100046.00
2018-09-23T15:12:07.993Z,100043.00
2018-09-23T15:14:39.230Z,100078.00
2018-09-23T15:17:09.825Z,100086.00
2018-09-23T15:19:40.421Z,100074.00
2018-09-23T15:22:10.820Z,100070.00
2018-09-23T15:24:40.989Z,100065.00
2018-09-23T15:27:12.753Z,100078.00
2018-09-23T15:29:43.244Z,100045.00
2018-09-23T15:32:13.342Z,100062.00
2018-09-23T15:34:43.877Z,100095.00
2018-09-23T15:37:14.599Z,100101.00
2018-09-23T15:39:47.172Z,100056.00
2018-09-23T15:42:18.250Z,100058.00
2018-09-23T15:44:48.616Z,100077.00
2018-09-23T15:47:20.086Z,100103.00
2018-09-23T15:49:50.466Z,100113.00
2018-09-23T15:52:20.933Z,100117.00
2018-09-23T15:54:51.784Z,100119.00
2018-09-23T15:57:22.319Z,100127.00
2018-09-23T15:59:53.198Z,100137.00
2018-09-23T16:02:23.624Z,100141.00
2018-09-23T16:04:54.640Z,100132.00
2018-09-23T16:07:25.623Z,100145.00
2018-09-23T16:09:56.920Z,100191.00
2018-09-23T16:12:27.297Z,100182.00
2018-09-23T16:14:57.371Z,100196.00
2018-09-23T16:17:27.644Z,100192.00
2018-09-23T16:19:57.794Z,100193.00
2018-09-23T16:22:27.807Z,100213.00
2018-09-23T16:24:57.266Z,100253.00
2018-09-23T16:27:27.144Z,100258.00
2018-09-23T16:29:56.652Z,100277.00
2018-09-23T16:32:26.304Z,100281.00
2018-09-23T16:34:56.136Z,100287.00
2018-09-23T16:37:25.686Z,100279.00
2018-09-23T16:39:55.188Z,100278.00
2018-09-23T16:42:24.856Z,100257.00
2018-09-23T16:44:54.157Z,100239.00
2018-09-23T16:47:23.860Z,100242.00
2018-09-23T16:49:53.212Z,100254.00
2018-09-23T16:52:22.489Z,100280.00
2018-09-23T16:54:52.286Z,100274.00
2018-09-23T16:57:21.563Z,100285.00
2018-09-23T16:59:51.054Z,100299.00
2018-09-23T17:02:20.579Z,100300.00
2018-09-23T17:04:49.839Z,100295.00
2018-09-23T17:07:19.716Z,100305.00
2018-09-23T17:09:49.729Z,100331.00
2018-09-23T17:12:19.944Z,100322.00
2018-09-23T17:14:49.307Z,100321.00
2018-09-23T17:17:19.122Z,100332.00
2018-09-23T17:19:48.542Z,100341.00
2018-09-23T17:22:18.245Z,100340.00
2018-09-23T17:24:47.668Z,100351.00
2018-09-23T17:27:16.943Z,100345.00
2018-09-23T17:29:46.023Z,100358.00
2018-09-23T17:32:15.654Z,100358.00
2018-09-23T17:34:45.054Z,100378.00
2018-09-23T17:37:15.278Z,100380.00
2018-09-23T17:39:44.735Z,100394.00
2018-09-23T17:42:14.478Z,100395.00
2018-09-23T17:44:43.795Z,100407.00
2018-09-23T17:47:13.566Z,100401.00
2018-09-23T17:49:43.580Z,100408.00
2018-09-23T17:52:13.495Z,100415.00
2018-09-23T17:54:43.253Z,100428.00
2018-09-23T17:57:13.055Z,100427.00
2018-09-23T17:59:43.077Z,100438.00
2018-09-23T18:02:12.762Z,100453.00
2018-09-23T18:04:42.693Z,100460.00
2018-09-23T18:07:12.601Z,100461.00
2018-09-23T18:09:43.215Z,100455.00
2018-09-23T18:12:13.381Z,100468.00
2018-09-23T18:14:43.093Z,100476.00
2018-09-23T18:17:12.886Z,100495.00
2018-09-23T18:19:43.093Z,100492.00
2018-09-23T18:22:12.964Z,100504.00
2018-09-23T18:24:42.991Z,100510.00
2018-09-23T18:27:13.385Z,100499.00
2018-09-23T18:29:43.361Z,100515.00
2018-09-23T18:32:13.178Z,100526.00
2018-09-23T18:34:43.041Z,100517.00
2018-09-23T18:37:13.085Z,100507.00
2018-09-23T18:39:42.591Z,100514.00
2018-09-23T18:42:12.119Z,100530.00
2018-09-23T18:44:41.949Z,100534.00
2018-09-23T18:47:11.746Z,100525.00
2018-09-23T18:49:41.678Z,100532.00
2018-09-23T18:52:11.419Z,100537.00
2018-09-23T18:54:46.597Z,100550.00
2018-09-23T18:57:16.696Z,100548.00
2018-09-23T18:59:46.666Z,100556.00
2018-09-23T19:02:16.655Z,100568.00
2018-09-23T19:04:46.419Z,100566.00
2018-09-23T19:07:16.591Z,100586.00
2018-09-23T19:09:46.591Z,100582.00
2018-09-23T19:12:16.143Z,100604.00
2018-09-23T19:14:46.552Z,100599.00
2018-09-23T19:17:16.677Z,100609.00
2018-09-23T19:19:51.912Z,100619.00
2018-09-23T19:22:27.053Z,100630.00
2018-09-23T19:24:57.046Z,100626.00
2018-09-23T19:27:27.083Z,100637.00
2018-09-23T19:29:57.000Z,100655.00
2018-09-23T19:32:26.721Z,100657.00
2018-09-23T19:34:57.156Z,100661.00
2018-09-23T19:37:27.459Z,100675.00
2018-09-23T19:39:57.323Z,100682.00
2018-09-23T19:42:27.360Z,100683.00
2018-09-23T19:44:57.525Z,100692.00
2018-09-23T19:47:27.504Z,100704.00
2018-09-23T19:49:57.340Z,100700.00
2018-09-23T19:52:27.269Z,100707.00
2018-09-23T19:54:57.009Z,100738.00
2018-09-23T19:57:27.013Z,100735.00
2018-09-23T19:59:57.242Z,100745.00
2018-09-23T20:02:26.913Z,100726.00
2018-09-23T20:04:57.133Z,100738.00
2018-09-23T20:07:26.676Z,100750.00
2018-09-23T20:09:56.855Z,100749.00
2018-09-23T20:12:26.760Z,100746.00
2018-09-23T20:14:56.459Z,100760.00
2018-09-23T20:17:26.238Z,100760.00
2018-09-23T20:19:56.178Z,100767.00
2018-09-23T20:22:26.672Z,100762.00
2018-09-23T20:24:56.469Z,100777.00
2018-09-23T20:27:26.046Z,100778.00
2018-09-23T20:29:55.794Z,100778.00
2018-09-23T20:32:25.674Z,100789.00
2018-09-23T20:34:55.897Z,100797.00
2018-09-23T20:37:25.653Z,100803.00
2018-09-23T20:39:55.672Z,100800.00
2018-09-23T20:42:25.608Z,100813.00
2018-09-23T20:44:55.396Z,100816.00
2018-09-23T20:47:25.767Z,100832.00
2018-09-23T20:49:56.134Z,100829.00
2018-09-23T20:52:25.739Z,100836.00
2018-09-23T20:54:55.644Z,100849.00
2018-09-23T20:57:25.244Z,100847.00
2018-09-23T20:59:55.089Z,100853.00
2018-09-23T21:02:24.974Z,100858.00
2018-09-23T21:04:55.303Z,100865.00
2018-09-23T21:07:25.088Z,100868.00
2018-09-23T21:09:55.115Z,100879.00
2018-09-23T21:12:24.919Z,100880.00
2018-09-23T21:14:55.324Z,100884.00
2018-09-23T21:17:25.374Z,100898.00
2018-09-23T21:19:55.232Z,100900.00
2018-09-23T21:22:25.134Z,100903.00
2018-09-23T21:24:54.770Z,100915.00
2018-09-23T21:27:24.772Z,100925.00
2018-09-23T21:29:54.569Z,100925.00
2018-09-23T21:32:24.537Z,100928.00
2018-09-23T21:34:54.164Z,100924.00
2018-09-23T21:37:23.892Z,100932.00
2018-09-23T21:39:53.531Z,100935.00
2018-09-23T21:42:23.272Z,100943.00
2018-09-23T21:44:52.896Z,100952.00
2018-09-23T21:47:22.719Z,100953.00
2018-09-23T21:49:52.727Z,100955.00
2018-09-23T21:52:22.428Z,100964.00
2018-09-23T21:54:52.893Z,100966.00
2018-09-23T21:57:22.783Z,100970.00
2018-09-23T21:59:52.132Z,100984.00
2018-09-23T22:02:22.346Z,100970.00
2018-09-23T22:04:52.247Z,100994.00
2018-09-23T22:07:21.728Z,100994.00
2018-09-23T22:09:51.732Z,100990.00
2018-09-23T22:12:21.318Z,100998.00
2018-09-23T22:14:50.940Z,101016.00
2018-09-23T22:17:20.626Z,101009.00
2018-09-23T22:19:49.908Z,101025.00
2018-09-23T22:22:21.309Z,101029.00
2018-09-23T22:24:50.716Z,101018.00
2018-09-23T22:27:20.609Z,101037.00
2018-09-23T22:29:51.338Z,101035.00
2018-09-23T22:32:21.185Z,101049.00
2018-09-23T22:34:51.972Z,101048.00
2018-09-23T22:37:21.707Z,101040.00
2018-09-23T22:39:52.096Z,101053.00
2018-09-23T22:42:21.687Z,101050.00
2018-09-23T22:44:51.626Z,101060.00
2018-09-23T22:47:21.249Z,101070.00
2018-09-23T22:49:51.562Z,101077.00
2018-09-23T22:52:21.225Z,101084.00
2018-09-23T22:54:51.128Z,101092.00
2018-09-23T22:57:20.772Z,101091.00
2018-09-23T22:59:50.360Z,101089.00
2018-09-23T23:02:20.242Z,101096.00
2018-09-23T23:04:50.134Z,101090.00
2018-09-23T23:07:20.288Z,101091.00
2018-09-23T23:09:49.948Z,101106.00
2018-09-23T23:12:20.614Z,101114.00
2018-09-23T23:14:50.256Z,101109.00
2018-09-23T23:17:19.598Z,101106.00
2018-09-23T23:19:49.320Z,101118.00
2018-09-23T23:22:19.244Z,101121.00
2018-09-23T23:24:49.128Z,101125.00
2018-09-23T23:27:18.601Z,101129.00
2018-09-23T23:29:48.850Z,101141.00
2018-09-23T23:32:18.975Z,101154.00
2018-09-23T23:34:48.785Z,101158.00
2018-09-23T23:37:18.697Z,101160.00
2018-09-23T23:39:48.407Z,101164.00
2018-09-23T23:42:19.168Z,101172.00
2018-09-23T23:44:49.070Z,101182.00
2018-09-23T23:47:18.977Z,101175.00
2018-09-23T23:49:48.973Z,101180.00
2018-09-23T23:52:18.691Z,101181.00
2018-09-23T23:54:48.920Z,101191.00
2018-09-23T23:57:18.843Z,101194.00
2018-09-23T23:59:48.948Z,101204.00
